createdAt,value
2022-12-31T00:01:44.953Z,7.81
2022-12-31T00:04:11.363Z,7.84
2022-12-31T00:06:37.773Z,7.80
2022-12-31T00:09:06.783Z,7.85
2022-12-31T00:11:34.684Z,8.00
2022-12-31T00:14:01.669Z,7.97
2022-12-31T00:16:34.194Z,7.97
2022-12-31T00:19:01.153Z,8.04
2022-12-31T00:21:29.527Z,8.14
2022-12-31T00:23:56.209Z,8.00
2022-12-31T00:26:27.602Z,8.09
2022-12-31T00:28:55.831Z,8.18
2022-12-31T00:31:30.837Z,8.18
2022-12-31T00:33:58.391Z,8.22
2022-12-31T00:36:34.763Z,8.32
2022-12-31T00:39:03.323Z,8.34
2022-12-31T00:41:30.287Z,8.28
2022-12-31T00:43:57.100Z,8.27
2022-12-31T00:46:23.749Z,8.30
2022-12-31T00:48:50.946Z,7.96
2022-12-31T00:51:20.048Z,8.06
2022-12-31T00:53:46.962Z,8.06
2022-12-31T00:56:22.948Z,8.09
2022-12-31T00:58:49.794Z,8.23
2022-12-31T01:01:17.771Z,8.19
2022-12-31T01:03:44.977Z,7.97
2022-12-31T01:06:11.719Z,7.87
2022-12-31T01:08:38.035Z,7.98
2022-12-31T01:11:19.723Z,8.03
2022-12-31T01:13:49.742Z,8.07
2022-12-31T01:16:20.872Z,8.00
2022-12-31T01:18:47.661Z,8.11
2022-12-31T01:21:14.698Z,8.32
2022-12-31T01:23:41.596Z,8.22
2022-12-31T01:26:09.690Z,8.34
2022-12-31T01:28:36.320Z,8.41
2022-12-31T01:31:07.813Z,8.45
2022-12-31T01:33:34.715Z,8.43
2022-12-31T01:36:06.133Z,8.45
2022-12-31T01:38:34.385Z,8.49
2022-12-31T01:41:01.394Z,8.54
2022-12-31T01:44:09.931Z,8.78
2022-12-31T01:46:42.890Z,8.70
2022-12-31T01:49:24.489Z,8.82
2022-12-31T01:52:01.052Z,8.72
2022-12-31T01:54:29.849Z,8.78
2022-12-31T01:56:57.150Z,8.92
2022-12-31T01:59:26.391Z,8.93
2022-12-31T02:01:53.299Z,8.87
2022-12-31T02:04:22.768Z,8.94
2022-12-31T02:06:55.082Z,8.93
2022-12-31T02:09:21.523Z,8.93
2022-12-31T02:11:48.098Z,9.01
2022-12-31T02:14:27.699Z,9.12
2022-12-31T02:17:42.551Z,9.14
2022-12-31T02:20:28.446Z,9.21
2022-12-31T02:23:28.219Z,9.12
2022-12-31T02:26:01.868Z,9.09
2022-12-31T02:28:52.243Z,9.19
2022-12-31T02:31:29.337Z,9.15
2022-12-31T02:34:09.056Z,9.31
2022-12-31T02:36:41.839Z,9.39
2022-12-31T02:39:10.889Z,9.37
2022-12-31T02:41:52.597Z,9.39
2022-12-31T02:44:30.151Z,9.52
2022-12-31T02:47:08.665Z,9.63
2022-12-31T02:49:41.065Z,9.63
2022-12-31T02:52:31.603Z,9.56
2022-12-31T02:55:16.270Z,9.55
2022-12-31T02:57:53.230Z,9.62
2022-12-31T03:00:38.771Z,9.66
2022-12-31T03:03:07.555Z,9.49
2022-12-31T03:05:39.969Z,9.37
2022-12-31T03:08:06.783Z,9.28
2022-12-31T03:10:33.168Z,9.39
2022-12-31T03:13:00.535Z,9.42
2022-12-31T03:15:29.491Z,9.43
2022-12-31T03:18:00.479Z,9.45
2022-12-31T03:21:00.264Z,9.48
2022-12-31T03:23:31.821Z,9.62
2022-12-31T03:26:00.014Z,9.62
2022-12-31T03:28:29.377Z,9.55
2022-12-31T03:30:59.717Z,9.66
2022-12-31T03:33:29.802Z,9.52
2022-12-31T03:35:56.301Z,9.48
2022-12-31T03:38:22.921Z,9.46
2022-12-31T03:40:51.547Z,9.46
2022-12-31T03:43:19.618Z,9.48
2022-12-31T03:45:54.241Z,9.55
2022-12-31T03:48:22.532Z,9.61
2022-12-31T03:50:49.546Z,9.45
2022-12-31T03:53:16.457Z,9.63
2022-12-31T03:55:42.981Z,9.70
2022-12-31T03:58:09.464Z,9.77
2022-12-31T04:00:36.194Z,9.79
2022-12-31T04:03:02.573Z,9.90
2022-12-31T04:05:28.968Z,9.51
2022-12-31T04:07:55.886Z,9.66
2022-12-31T04:10:22.690Z,9.81
2022-12-31T04:12:49.082Z,9.76
2022-12-31T04:15:18.737Z,9.69
2022-12-31T04:17:45.316Z,9.50
2022-12-31T04:20:12.158Z,9.65
2022-12-31T04:22:38.714Z,9.74
2022-12-31T04:25:11.089Z,9.67
2022-12-31T04:27:43.490Z,9.58
2022-12-31T04:30:10.920Z,9.47
2022-12-31T04:32:37.361Z,9.38
2022-12-31T04:35:04.023Z,9.35
2022-12-31T04:37:30.424Z,9.53
2022-12-31T04:40:00.418Z,9.46
2022-12-31T04:42:30.069Z,9.71
2022-12-31T04:44:56.463Z,9.56
2022-12-31T04:47:24.016Z,9.67
2022-12-31T04:49:50.575Z,9.54
2022-12-31T04:52:17.131Z,9.65
2022-12-31T04:54:43.545Z,9.72
2022-12-31T04:57:10.010Z,9.70
2022-12-31T04:59:36.471Z,9.60
2022-12-31T05:02:03.190Z,9.52
2022-12-31T05:04:29.971Z,9.60
2022-12-31T05:06:56.448Z,9.63
2022-12-31T05:09:24.202Z,9.70
2022-12-31T05:11:50.752Z,9.59
2022-12-31T05:14:17.296Z,9.53
2022-12-31T05:16:43.783Z,9.61
2022-12-31T05:19:10.531Z,9.69
2022-12-31T05:21:37.087Z,9.89
2022-12-31T05:24:03.758Z,9.67
2022-12-31T05:26:30.268Z,9.75
2022-12-31T05:28:56.825Z,9.42
2022-12-31T05:31:23.329Z,9.52
2022-12-31T05:33:52.728Z,9.64
2022-12-31T05:36:19.127Z,9.40
2022-12-31T05:38:45.581Z,9.48
2022-12-31T05:41:12.194Z,9.58
2022-12-31T05:43:38.669Z,9.44
2022-12-31T05:46:05.521Z,9.65
2022-12-31T05:48:32.028Z,9.62
2022-12-31T05:50:58.789Z,9.61
2022-12-31T05:53:25.180Z,9.70
2022-12-31T05:55:51.575Z,9.66
2022-12-31T05:58:18.078Z,9.88
2022-12-31T06:00:44.636Z,9.93
2022-12-31T06:03:11.371Z,9.67
2022-12-31T06:05:43.056Z,9.95
2022-12-31T06:08:11.311Z,9.91
2022-12-31T06:10:38.283Z,10.04
2022-12-31T06:13:05.012Z,10.22
2022-12-31T06:15:31.576Z,10.16
2022-12-31T06:17:58.313Z,9.99
2022-12-31T06:20:24.718Z,9.92
2022-12-31T06:22:51.191Z,9.60
2022-12-31T06:25:17.589Z,9.81
2022-12-31T06:27:44.023Z,9.67
2022-12-31T06:30:11.181Z,9.87
2022-12-31T06:32:39.350Z,9.86
2022-12-31T06:35:06.640Z,9.71
2022-12-31T06:37:33.275Z,9.88
2022-12-31T06:39:59.816Z,9.98
2022-12-31T06:42:30.853Z,9.94
2022-12-31T06:45:01.635Z,9.84
2022-12-31T06:47:28.089Z,9.80
2022-12-31T06:49:54.633Z,10.04
2022-12-31T06:52:21.733Z,10.07
2022-12-31T06:54:48.750Z,10.16
2022-12-31T06:57:15.530Z,10.34
2022-12-31T06:59:42.198Z,10.40
2022-12-31T07:02:24.116Z,10.32
2022-12-31T07:05:04.966Z,10.61
2022-12-31T07:08:18.774Z,10.53
2022-12-31T07:10:51.276Z,10.45
2022-12-31T07:13:55.495Z,10.53
2022-12-31T07:16:56.330Z,10.63
2022-12-31T07:19:39.271Z,10.54
2022-12-31T07:22:13.207Z,10.19
2022-12-31T07:24:43.533Z,10.61
2022-12-31T07:27:48.306Z,10.60
2022-12-31T07:30:19.634Z,10.38
2022-12-31T07:33:11.268Z,10.62
2022-12-31T07:35:45.136Z,10.83
2022-12-31T07:38:44.805Z,10.88
2022-12-31T07:41:36.241Z,10.87
2022-12-31T07:45:10.375Z,11.22
2022-12-31T07:56:12.608Z,11.20
2022-12-31T08:05:43.379Z,11.25
2022-12-31T08:08:16.048Z,11.62
2022-12-31T08:10:59.284Z,11.55
2022-12-31T08:13:26.615Z,11.62
2022-12-31T08:16:17.698Z,11.65
2022-12-31T08:18:53.508Z,11.43
2022-12-31T08:21:51.025Z,11.96
2022-12-31T08:24:49.927Z,11.90
2022-12-31T08:27:50.476Z,11.72
2022-12-31T08:30:20.633Z,11.81
2022-12-31T08:32:54.859Z,11.98
2022-12-31T08:36:03.636Z,12.07
2022-12-31T08:38:59.904Z,12.03
2022-12-31T08:41:37.586Z,11.76
2022-12-31T08:44:20.900Z,12.15
2022-12-31T08:47:02.879Z,12.17
2022-12-31T08:49:46.843Z,11.97
2022-12-31T08:52:20.087Z,12.18
2022-12-31T08:54:46.837Z,12.19
2022-12-31T08:57:28.850Z,11.94
2022-12-31T09:00:04.514Z,12.01
2022-12-31T09:02:52.624Z,12.14
2022-12-31T09:05:24.298Z,12.14
2022-12-31T09:08:30.470Z,12.30
2022-12-31T09:11:22.816Z,12.35
2022-12-31T09:14:31.398Z,12.42
2022-12-31T09:17:10.669Z,12.03
2022-12-31T09:19:37.134Z,12.23
2022-12-31T09:22:04.138Z,12.39
2022-12-31T09:24:30.957Z,12.74
2022-12-31T09:27:01.485Z,12.59
2022-12-31T09:29:43.330Z,12.37
2022-12-31T09:32:25.890Z,12.53
2022-12-31T09:35:07.523Z,12.91
2022-12-31T09:37:48.526Z,12.45
2022-12-31T09:40:39.872Z,12.45
2022-12-31T09:43:40.520Z,12.90
2022-12-31T09:46:22.278Z,12.96
2022-12-31T09:49:11.243Z,12.91
2022-12-31T09:51:56.353Z,12.69
2022-12-31T09:54:26.587Z,12.90
2022-12-31T09:57:14.787Z,12.92
2022-12-31T09:59:52.533Z,12.59
2022-12-31T10:02:47.953Z,12.83
2022-12-31T10:05:43.767Z,12.70
2022-12-31T10:08:31.887Z,12.70
2022-12-31T10:11:06.241Z,12.66
2022-12-31T10:13:48.969Z,12.79
2022-12-31T10:16:29.909Z,12.86
2022-12-31T10:19:25.969Z,12.74
2022-12-31T10:22:26.706Z,12.81
2022-12-31T10:25:39.203Z,12.74
2022-12-31T10:28:21.504Z,12.68
2022-12-31T10:31:13.278Z,12.77
2022-12-31T10:33:42.702Z,12.80
2022-12-31T10:36:20.145Z,12.57
2022-12-31T10:39:14.452Z,12.59
2022-12-31T10:42:01.147Z,12.34
2022-12-31T10:45:05.512Z,12.61
2022-12-31T10:47:41.976Z,12.74
2022-12-31T10:50:47.872Z,12.56
2022-12-31T10:53:45.999Z,12.70
2022-12-31T10:56:39.888Z,12.77
2022-12-31T10:59:32.384Z,12.93
2022-12-31T11:02:14.118Z,13.00
2022-12-31T11:05:01.670Z,12.75
2022-12-31T11:07:56.163Z,12.80
2022-12-31T11:10:57.540Z,12.94
2022-12-31T11:13:43.464Z,12.78
2022-12-31T11:16:16.179Z,12.74
2022-12-31T11:19:04.114Z,12.87
2022-12-31T11:21:41.812Z,12.80
2022-12-31T11:24:26.724Z,12.67
2022-12-31T11:27:12.019Z,12.79
2022-12-31T11:30:04.899Z,12.72
2022-12-31T11:32:46.457Z,12.75
2022-12-31T11:36:01.673Z,12.87
2022-12-31T11:38:38.996Z,13.09
2022-12-31T11:41:07.991Z,13.16
2022-12-31T11:43:40.948Z,12.81
2022-12-31T11:46:16.877Z,13.00
2022-12-31T11:49:01.726Z,13.02
2022-12-31T11:51:56.186Z,12.99
2022-12-31T11:54:40.843Z,12.99
2022-12-31T11:57:16.263Z,13.20
2022-12-31T11:59:42.739Z,13.14
2022-12-31T12:02:26.703Z,13.04
2022-12-31T12:04:57.005Z,13.07
2022-12-31T12:07:24.147Z,13.11
2022-12-31T12:09:54.471Z,13.20
2022-12-31T12:12:21.123Z,13.31
2022-12-31T12:14:54.261Z,13.21
2022-12-31T12:17:34.893Z,13.20
2022-12-31T12:20:05.077Z,13.37
2022-12-31T12:22:31.702Z,13.26
2022-12-31T12:25:05.537Z,13.25
2022-12-31T12:27:36.541Z,13.38
2022-12-31T12:30:11.663Z,13.25
2022-12-31T12:32:38.219Z,13.49
2022-12-31T12:35:25.255Z,13.72
2022-12-31T12:38:03.759Z,13.72
2022-12-31T12:40:34.192Z,13.77
2022-12-31T12:43:02.293Z,13.47
2022-12-31T12:45:57.613Z,13.90
2022-12-31T12:48:32.795Z,14.11
2022-12-31T12:51:00.019Z,13.97
2022-12-31T12:53:35.227Z,13.87
2022-12-31T12:56:50.978Z,14.15
2022-12-31T12:59:23.242Z,14.24
2022-12-31T13:05:55.130Z,14.22
2022-12-31T13:08:43.894Z,14.45
2022-12-31T13:11:39.460Z,14.37
2022-12-31T13:14:15.102Z,14.43
2022-12-31T13:16:56.337Z,14.53
2022-12-31T13:19:42.017Z,14.17
2022-12-31T13:22:23.060Z,14.28
2022-12-31T13:25:18.019Z,14.48
2022-12-31T13:27:48.282Z,14.61
2022-12-31T13:31:06.365Z,14.69
2022-12-31T13:33:39.244Z,14.81
2022-12-31T13:36:09.183Z,14.88
2022-12-31T13:38:41.618Z,14.55
2022-12-31T13:41:22.763Z,14.43
2022-12-31T13:44:03.923Z,14.56
2022-12-31T13:46:52.199Z,14.71
2022-12-31T13:49:26.942Z,14.47
2022-12-31T13:52:16.838Z,14.71
2022-12-31T13:54:53.500Z,14.75
2022-12-31T13:57:53.693Z,14.47
2022-12-31T14:00:25.555Z,14.62
2022-12-31T14:03:16.847Z,14.59
2022-12-31T14:05:49.367Z,14.61
2022-12-31T14:08:16.017Z,14.79
2022-12-31T14:11:22.117Z,14.81
2022-12-31T14:14:15.561Z,14.86
2022-12-31T14:16:55.458Z,14.72
2022-12-31T14:19:47.444Z,14.56
2022-12-31T14:22:26.495Z,14.86
2022-12-31T14:24:55.634Z,15.07
2022-12-31T14:27:29.784Z,14.83
2022-12-31T14:30:01.715Z,14.88
2022-12-31T14:32:51.175Z,14.64
2022-12-31T14:35:17.690Z,14.93
2022-12-31T14:38:05.691Z,14.82
2022-12-31T14:40:51.172Z,14.90
2022-12-31T14:43:56.689Z,14.92
2022-12-31T14:46:31.991Z,14.83
2022-12-31T14:49:20.188Z,14.78
2022-12-31T14:51:46.992Z,14.77
2022-12-31T14:54:34.686Z,14.81
2022-12-31T14:57:11.428Z,14.61
2022-12-31T14:59:40.612Z,14.53
2022-12-31T15:02:30.300Z,14.56
2022-12-31T15:05:14.548Z,14.50
2022-12-31T15:07:47.186Z,14.39
2022-12-31T15:10:20.847Z,14.21
2022-12-31T15:13:18.752Z,14.22
2022-12-31T15:16:00.931Z,14.20
2022-12-31T15:18:45.743Z,14.14
2022-12-31T15:21:34.034Z,13.97
2022-12-31T15:24:03.848Z,14.07
2022-12-31T15:29:44.498Z,14.19
2022-12-31T15:32:28.731Z,13.79
2022-12-31T15:35:05.469Z,14.17
2022-12-31T15:37:35.167Z,14.19
2022-12-31T15:40:19.410Z,14.09
2022-12-31T15:42:55.622Z,14.22
2022-12-31T15:45:36.474Z,14.36
2022-12-31T15:48:13.487Z,14.17
2022-12-31T15:50:41.971Z,14.08
2022-12-31T15:53:09.090Z,14.14
2022-12-31T15:55:46.552Z,14.00
2022-12-31T15:58:21.105Z,13.94
2022-12-31T16:01:10.208Z,14.00
2022-12-31T16:03:37.210Z,14.01
2022-12-31T16:06:11.298Z,14.27
2022-12-31T16:08:38.651Z,14.27
2022-12-31T16:11:07.588Z,14.13
2022-12-31T16:13:39.144Z,14.36
2022-12-31T16:16:19.454Z,14.04
2022-12-31T16:18:46.296Z,14.06
2022-12-31T16:21:26.030Z,14.31
2022-12-31T16:23:54.533Z,14.40
2022-12-31T16:26:24.243Z,14.18
2022-12-31T16:28:53.365Z,14.22
2022-12-31T16:31:21.036Z,14.46
2022-12-31T16:33:50.758Z,14.42
2022-12-31T16:36:22.967Z,14.52
2022-12-31T16:38:49.971Z,14.28
2022-12-31T16:41:21.304Z,14.60
2022-12-31T16:43:52.629Z,14.19
2022-12-31T16:46:27.248Z,14.42
2022-12-31T16:49:20.151Z,14.44
2022-12-31T16:51:49.394Z,14.47
2022-12-31T16:54:31.794Z,14.37
2022-12-31T16:56:59.738Z,14.52
2022-12-31T16:59:35.119Z,14.57
2022-12-31T17:02:06.870Z,14.28
2022-12-31T17:04:33.599Z,14.44
2022-12-31T17:07:28.028Z,14.57
2022-12-31T17:10:06.709Z,14.28
2022-12-31T17:13:00.642Z,14.46
2022-12-31T17:15:26.053Z,14.40
2022-12-31T17:17:56.931Z,14.28
2022-12-31T17:20:27.310Z,14.54
2022-12-31T17:23:03.472Z,14.43
2022-12-31T17:25:36.126Z,14.45
2022-12-31T17:28:08.322Z,14.39
2022-12-31T17:30:40.261Z,14.75
2022-12-31T17:33:22.043Z,14.62
2022-12-31T17:35:54.073Z,14.66
2022-12-31T17:38:23.558Z,14.62
2022-12-31T17:41:00.114Z,14.40
2022-12-31T17:43:33.078Z,14.62
2022-12-31T17:46:09.285Z,14.82
2022-12-31T17:48:36.356Z,14.57
2022-12-31T17:51:02.812Z,14.89
2022-12-31T17:53:29.247Z,14.96
2022-12-31T17:56:00.362Z,14.91
2022-12-31T17:58:38.013Z,14.89
2022-12-31T18:01:08.780Z,14.99
2022-12-31T18:03:35.893Z,15.18
2022-12-31T18:06:02.792Z,14.99
2022-12-31T18:08:29.305Z,14.86
2022-12-31T18:10:55.855Z,14.94
2022-12-31T18:13:27.043Z,14.98
2022-12-31T18:15:53.974Z,14.95
2022-12-31T18:18:25.239Z,15.02
2022-12-31T18:20:56.166Z,14.72
2022-12-31T18:23:26.244Z,14.80
2022-12-31T18:25:52.799Z,14.56
2022-12-31T18:28:19.731Z,14.74
2022-12-31T18:30:47.966Z,14.80
2022-12-31T18:33:16.904Z,14.39
2022-12-31T18:38:31.618Z,14.55
2022-12-31T18:40:59.684Z,14.33
2022-12-31T18:43:26.400Z,14.01
2022-12-31T18:45:53.178Z,14.09
2022-12-31T18:48:19.655Z,14.48
2022-12-31T18:50:47.312Z,14.24
2022-12-31T18:53:22.364Z,14.34
2022-12-31T18:55:57.990Z,14.19
2022-12-31T18:58:24.568Z,14.37
2022-12-31T19:00:51.911Z,14.11
2022-12-31T19:03:21.690Z,14.55
2022-12-31T19:05:50.767Z,14.40
2022-12-31T19:08:18.979Z,14.20
2022-12-31T19:10:45.699Z,14.35
2022-12-31T19:13:13.276Z,14.59
2022-12-31T19:15:53.821Z,14.43
2022-12-31T19:18:20.272Z,14.57
2022-12-31T19:20:47.348Z,14.63
2022-12-31T19:23:20.448Z,14.31
2022-12-31T19:25:48.255Z,14.44
2022-12-31T19:28:20.602Z,14.42
2022-12-31T19:30:47.183Z,14.45
2022-12-31T19:33:14.073Z,14.27
2022-12-31T19:35:41.742Z,14.36
2022-12-31T19:38:20.833Z,14.39
2022-12-31T19:40:48.205Z,14.26
2022-12-31T19:43:17.548Z,14.08
2022-12-31T19:45:44.792Z,14.21
2022-12-31T19:48:17.618Z,14.17
2022-12-31T19:50:51.442Z,14.16
2022-12-31T19:53:23.221Z,14.02
2022-12-31T19:55:50.458Z,14.10
2022-12-31T19:58:20.345Z,14.18
2022-12-31T20:00:54.593Z,13.94
2022-12-31T20:03:24.362Z,14.21
2022-12-31T20:05:50.902Z,14.25
2022-12-31T20:08:20.269Z,14.35
2022-12-31T20:10:47.188Z,14.29
2022-12-31T20:13:13.672Z,14.21
2022-12-31T20:15:40.457Z,14.27
2022-12-31T20:18:06.929Z,14.19
2022-12-31T20:20:33.344Z,14.19
2022-12-31T20:22:59.763Z,14.25
2022-12-31T20:25:26.244Z,14.15
2022-12-31T20:27:54.765Z,13.97
2022-12-31T20:30:23.041Z,14.10
2022-12-31T20:32:51.718Z,14.02
2022-12-31T20:35:19.373Z,14.32
2022-12-31T20:37:46.236Z,14.27
2022-12-31T20:40:13.037Z,14.52
2022-12-31T20:42:40.721Z,14.23
2022-12-31T20:45:09.582Z,14.20
2022-12-31T20:47:36.260Z,14.18
2022-12-31T20:50:12.165Z,14.29
2022-12-31T20:52:39.223Z,14.24
2022-12-31T20:55:06.220Z,14.28
2022-12-31T20:57:33.990Z,14.48
2022-12-31T21:00:00.811Z,14.59
2022-12-31T21:02:41.037Z,14.53
2022-12-31T21:05:08.870Z,14.46
2022-12-31T21:07:35.395Z,14.39
2022-12-31T21:10:01.826Z,14.59
2022-12-31T21:12:43.693Z,14.65
2022-12-31T21:15:14.906Z,14.60
2022-12-31T21:17:41.321Z,14.68
2022-12-31T21:20:08.321Z,14.72
2022-12-31T21:22:34.942Z,14.45
2022-12-31T21:25:02.376Z,14.71
2022-12-31T21:27:29.664Z,14.61
2022-12-31T21:32:43.163Z,14.38
2022-12-31T21:35:42.304Z,14.64
2022-12-31T21:38:05.877Z,14.67
2022-12-31T21:40:33.063Z,14.69
2022-12-31T21:42:59.556Z,14.69
2022-12-31T21:45:26.124Z,14.86
2022-12-31T21:48:14.337Z,14.84
2022-12-31T21:50:40.775Z,14.74
2022-12-31T21:53:07.297Z,14.82
2022-12-31T21:55:52.416Z,14.84
2022-12-31T21:59:39.044Z,14.52
2022-12-31T22:02:29.351Z,14.50
2022-12-31T22:05:05.882Z,14.75
2022-12-31T22:07:37.016Z,14.57
2022-12-31T22:10:03.654Z,14.50
2022-12-31T22:12:30.363Z,14.58
2022-12-31T22:15:15.631Z,14.84
2022-12-31T22:17:42.630Z,14.76
2022-12-31T22:20:27.110Z,14.68
2022-12-31T22:22:55.514Z,14.41
2022-12-31T22:25:21.958Z,14.47
2022-12-31T22:28:11.453Z,14.60
2022-12-31T22:30:34.945Z,14.61
2022-12-31T22:33:01.427Z,14.65
2022-12-31T22:35:27.847Z,14.68
2022-12-31T22:37:57.505Z,14.53
2022-12-31T22:40:26.705Z,14.50
2022-12-31T22:42:53.143Z,14.48
2022-12-31T22:45:19.648Z,14.57
2022-12-31T22:47:46.265Z,14.69
2022-12-31T22:50:12.779Z,14.45
2022-12-31T22:52:39.218Z,14.48
2022-12-31T22:55:12.143Z,14.55
2022-12-31T22:57:38.600Z,14.56
2022-12-31T23:00:16.710Z,14.39
2022-12-31T23:05:54.649Z,14.28
2022-12-31T23:08:23.793Z,14.23
2022-12-31T23:10:59.599Z,14.56
2022-12-31T23:13:52.365Z,14.42
2022-12-31T23:16:38.444Z,14.14
2022-12-31T23:19:25.112Z,14.44
2022-12-31T23:22:11.364Z,14.27
2022-12-31T23:24:38.291Z,14.30
2022-12-31T23:27:05.222Z,14.44
2022-12-31T23:29:54.988Z,14.33
2022-12-31T23:32:19.678Z,14.41
2022-12-31T23:34:46.901Z,14.36
2022-12-31T23:37:14.821Z,14.05
2022-12-31T23:39:49.022Z,14.31
2022-12-31T23:42:15.756Z,14.25
2022-12-31T23:44:42.629Z,14.24
2022-12-31T23:47:09.249Z,14.29
2022-12-31T23:49:35.790Z,14.29
2022-12-31T23:52:02.597Z,14.16
2022-12-31T23:54:29.068Z,14.12
2022-12-31T23:56:55.517Z,14.04
2022-12-31T23:59:22.027Z,14.16
